Hemsby, United Kingdom
Current Conditions -  °F | °C
As of 11:50 AM on Tuesday 21 Oct 2014 (Local Time) from EGSD Reporting Station
Scattered Clouds Scattered Clouds  
Wind Chill: 55°   Ceiling: Unl
Heat Index: 55°   Visibility: 6mi
Dew Point: 48°   Wind: 26mph
Humidity: 77%   Direction: 270°W
Pressure: 29.47"   Gusts: 38mph
Location:  52.7°N, 1.69°E
Report Text: EGSD 211050Z 27023G33KT 9999 SCT015 13/09 Q0998
Loading
Personal Weather Stations






























Interactive Weather Map
Tropical Storm Tracking
New forecast layout! Learn more

10-Day Weather Forecast

Advertisements
Track Severe Weather on mobile